createdAt,value
2023-06-18T00:00:10.217Z,16.71
2023-06-18T00:05:13.071Z,16.70
2023-06-18T00:10:14.568Z,16.70
2023-06-18T00:15:16.001Z,16.67
2023-06-18T00:20:17.488Z,16.65
2023-06-18T00:25:18.994Z,16.56
2023-06-18T00:30:20.579Z,16.49
2023-06-18T00:35:22.543Z,16.43
2023-06-18T00:40:24.278Z,16.36
2023-06-18T00:45:30.169Z,16.34
2023-06-18T00:50:33.354Z,16.32
2023-06-18T00:55:38.518Z,16.31
2023-06-18T01:00:41.877Z,16.29
2023-06-18T01:05:44.635Z,16.26
2023-06-18T01:10:47.349Z,16.22
2023-06-18T01:15:48.758Z,16.14
2023-06-18T01:20:50.676Z,16.06
2023-06-18T01:25:53.835Z,15.97
2023-06-18T01:30:55.902Z,15.91
2023-06-18T01:35:57.446Z,15.89
2023-06-18T01:41:02.645Z,15.90
2023-06-18T01:46:11.938Z,15.88
2023-06-18T01:51:16.439Z,15.84
2023-06-18T01:56:18.863Z,15.82
2023-06-18T02:01:21.949Z,15.81
2023-06-18T02:06:23.390Z,15.80
2023-06-18T02:11:24.838Z,15.79
2023-06-18T02:16:26.549Z,15.78
2023-06-18T02:21:29.787Z,15.77
2023-06-18T02:26:31.735Z,15.75
2023-06-18T02:31:33.131Z,15.74
2023-06-18T02:36:39.673Z,15.74
2023-06-18T02:41:43.590Z,15.74
2023-06-18T02:46:44.963Z,15.74
2023-06-18T02:51:46.397Z,15.73
2023-06-18T02:56:47.799Z,15.75
2023-06-18T03:01:49.298Z,15.77
2023-06-18T03:06:50.872Z,15.78
2023-06-18T03:11:53.059Z,15.79
2023-06-18T03:16:54.714Z,15.82
2023-06-18T03:21:57.049Z,15.84
2023-06-18T03:26:59.708Z,15.86
2023-06-18T03:32:01.681Z,15.90
2023-06-18T03:37:04.720Z,15.92
2023-06-18T03:42:08.291Z,15.96
2023-06-18T03:47:10.945Z,15.99
2023-06-18T03:52:13.540Z,16.03
2023-06-18T03:57:15.222Z,16.05
2023-06-18T04:02:16.982Z,16.09
2023-06-18T04:07:20.059Z,16.13
2023-06-18T04:12:23.840Z,16.20
2023-06-18T04:17:26.540Z,16.25
2023-06-18T04:22:29.066Z,16.31
2023-06-18T04:27:30.830Z,16.36
2023-06-18T04:32:33.448Z,16.42
2023-06-18T04:37:37.407Z,16.48
2023-06-18T04:42:39.212Z,16.56
2023-06-18T04:47:43.487Z,16.65
2023-06-18T04:52:45.694Z,16.75
2023-06-18T04:57:47.479Z,16.85
2023-06-18T05:02:49.238Z,16.95
2023-06-18T05:07:51.982Z,17.04
2023-06-18T05:12:54.225Z,17.13
2023-06-18T05:17:55.833Z,17.17
2023-06-18T05:22:58.406Z,17.26
2023-06-18T05:28:02.955Z,17.35
2023-06-18T05:33:08.438Z,17.48
2023-06-18T05:38:09.918Z,17.60
2023-06-18T05:43:11.674Z,17.72
2023-06-18T05:48:19.456Z,17.88
2023-06-18T05:53:43.786Z,18.06
2023-06-18T05:58:47.582Z,18.19
2023-06-18T06:03:49.484Z,18.35
2023-06-18T06:08:51.173Z,18.50
2023-06-18T06:13:52.887Z,18.66
2023-06-18T06:18:54.703Z,18.79
2023-06-18T06:23:57.537Z,18.91
2023-06-18T06:28:59.240Z,19.04
2023-06-18T06:34:00.750Z,19.14
2023-06-18T06:39:04.070Z,19.25
2023-06-18T06:44:05.769Z,19.37
2023-06-18T06:49:11.426Z,19.51
2023-06-18T06:54:22.055Z,19.60
2023-06-18T06:59:23.801Z,19.72
2023-06-18T07:04:25.261Z,19.79
2023-06-18T07:09:27.008Z,19.87
2023-06-18T07:14:28.365Z,19.96
2023-06-18T07:19:29.725Z,20.04
2023-06-18T07:24:31.185Z,20.14
2023-06-18T07:29:32.590Z,20.23
2023-06-18T07:34:34.044Z,20.34
2023-06-18T07:39:35.501Z,20.44
2023-06-18T07:44:37.798Z,20.53
2023-06-18T07:49:39.252Z,20.66
2023-06-18T07:54:40.698Z,20.75
2023-06-18T07:59:42.124Z,20.86
2023-06-18T08:04:43.475Z,20.96
2023-06-18T08:09:44.869Z,21.08
2023-06-18T08:14:47.836Z,21.20
2023-06-18T08:19:50.642Z,21.34
2023-06-18T08:24:52.062Z,21.42
2023-06-18T08:29:53.447Z,21.50
2023-06-18T08:34:55.254Z,21.60
2023-06-18T08:39:56.744Z,21.70
2023-06-18T08:44:58.260Z,21.76
2023-06-18T08:50:02.788Z,21.85
2023-06-18T08:55:07.985Z,21.99
2023-06-18T09:00:10.061Z,22.17
2023-06-18T09:05:12.213Z,22.33
2023-06-18T09:10:15.433Z,22.46
2023-06-18T09:15:16.881Z,22.62
2023-06-18T09:20:21.700Z,22.79
2023-06-18T09:25:24.360Z,22.96
2023-06-18T09:30:27.614Z,22.92
2023-06-18T09:35:29.000Z,22.85
2023-06-18T09:40:30.397Z,23.00
2023-06-18T09:45:32.035Z,23.21
2023-06-18T09:50:33.430Z,23.26
2023-06-18T09:55:35.922Z,23.44
2023-06-18T10:00:39.016Z,23.63
2023-06-18T10:05:40.805Z,23.81
2023-06-18T10:10:42.649Z,23.95
2023-06-18T10:15:44.553Z,24.18
2023-06-18T10:20:46.122Z,24.35
2023-06-18T10:25:47.558Z,24.45
2023-06-18T10:30:49.432Z,24.56
2023-06-18T10:35:51.133Z,24.67
2023-06-18T10:41:05.841Z,24.61
2023-06-18T10:46:14.550Z,24.61
2023-06-18T10:51:19.280Z,24.78
2023-06-18T10:56:21.356Z,25.00
2023-06-18T11:01:26.472Z,25.09
2023-06-18T11:06:29.538Z,24.96
2023-06-18T11:11:32.042Z,24.87
2023-06-18T11:16:33.444Z,24.88
2023-06-18T11:21:34.948Z,24.94
2023-06-18T11:26:36.568Z,25.14
2023-06-18T11:31:38.023Z,25.34
2023-06-18T11:36:42.288Z,25.50
2023-06-18T11:41:43.667Z,25.54
2023-06-18T11:46:45.081Z,25.59
2023-06-18T11:51:46.550Z,25.64
2023-06-18T11:56:47.991Z,25.47
2023-06-18T12:01:49.498Z,25.35
2023-06-18T12:06:50.954Z,25.40
2023-06-18T12:12:11.187Z,25.48
2023-06-18T12:17:20.091Z,25.57
2023-06-18T12:22:21.577Z,25.74
2023-06-18T12:27:25.977Z,25.78
2023-06-18T12:32:27.594Z,25.84
2023-06-18T12:37:32.766Z,25.95
2023-06-18T12:42:34.220Z,26.05
2023-06-18T12:47:40.365Z,26.12
2023-06-18T12:52:44.509Z,26.23
2023-06-18T12:57:46.883Z,26.40
2023-06-18T13:02:49.435Z,27.03
2023-06-18T13:07:51.822Z,28.40
2023-06-18T13:12:53.234Z,29.46
2023-06-18T13:17:54.631Z,30.10
2023-06-18T13:22:56.176Z,29.96
2023-06-18T13:27:57.703Z,29.49
2023-06-18T13:32:59.876Z,28.86
2023-06-18T13:38:01.429Z,28.40
2023-06-18T13:43:04.494Z,28.07
2023-06-18T13:48:06.044Z,27.82
2023-06-18T13:53:10.089Z,27.71
2023-06-18T13:58:11.583Z,27.62
2023-06-18T14:03:13.571Z,27.66
2023-06-18T14:08:15.292Z,27.67
2023-06-18T14:13:16.888Z,27.69
2023-06-18T14:18:18.797Z,27.72
2023-06-18T14:23:20.324Z,27.66
2023-06-18T14:28:22.124Z,27.63
2023-06-18T14:33:23.527Z,27.55
2023-06-18T14:38:24.951Z,27.54
2023-06-18T14:43:26.361Z,27.56
2023-06-18T14:48:27.785Z,27.58
2023-06-18T14:53:29.142Z,27.60
2023-06-18T14:58:30.539Z,27.67
2023-06-18T15:03:32.114Z,27.65
2023-06-18T15:08:34.382Z,27.71
2023-06-18T15:13:35.795Z,27.75
2023-06-18T15:18:37.149Z,27.75
2023-06-18T15:23:38.575Z,27.59
2023-06-18T15:28:40.002Z,27.56
2023-06-18T15:33:42.099Z,27.63
2023-06-18T15:38:46.238Z,27.67
2023-06-18T15:43:48.458Z,27.68
2023-06-18T15:48:49.830Z,27.69
2023-06-18T15:53:51.224Z,27.71
2023-06-18T15:58:52.675Z,27.69
2023-06-18T16:03:54.110Z,27.66
2023-06-18T16:08:55.632Z,27.70
2023-06-18T16:13:57.193Z,27.84
2023-06-18T16:18:58.622Z,28.02
2023-06-18T16:24:02.312Z,28.22
2023-06-18T16:29:03.921Z,28.30
2023-06-18T16:34:05.747Z,28.33
2023-06-18T16:39:07.112Z,28.22
2023-06-18T16:44:08.842Z,27.99
2023-06-18T16:49:10.682Z,27.91
2023-06-18T16:54:12.621Z,28.15
2023-06-18T16:59:14.133Z,28.27
2023-06-18T17:04:15.561Z,28.22
2023-06-18T17:09:18.685Z,28.55
2023-06-18T17:14:20.059Z,29.22
2023-06-18T17:19:21.477Z,29.89
2023-06-18T17:24:22.855Z,30.98
2023-06-18T17:29:24.220Z,30.83
2023-06-18T17:34:25.715Z,30.01
2023-06-18T17:39:27.232Z,29.27
2023-06-18T17:44:29.191Z,28.69
2023-06-18T17:49:30.602Z,28.26
2023-06-18T17:54:32.269Z,27.89
2023-06-18T17:59:33.633Z,27.61
2023-06-18T18:04:35.633Z,27.34
2023-06-18T18:09:37.755Z,27.08
2023-06-18T18:14:40.655Z,26.87
2023-06-18T18:19:42.408Z,26.65
2023-06-18T18:24:43.883Z,26.42
2023-06-18T18:29:45.285Z,26.22
2023-06-18T18:34:46.724Z,26.03
2023-06-18T18:39:48.079Z,25.85
2023-06-18T18:44:51.760Z,25.69
2023-06-18T18:49:54.635Z,25.52
2023-06-18T18:54:56.026Z,25.32
2023-06-18T18:59:57.410Z,25.12
2023-06-18T19:04:58.834Z,24.93
2023-06-18T19:10:00.549Z,24.72
2023-06-18T19:15:03.873Z,24.55
2023-06-18T19:20:06.249Z,24.36
2023-06-18T19:25:07.934Z,24.19
2023-06-18T19:30:09.581Z,24.02
2023-06-18T19:35:11.406Z,23.86
2023-06-18T19:40:13.132Z,23.71
2023-06-18T19:45:15.431Z,23.54
2023-06-18T19:50:17.886Z,23.40
2023-06-18T19:55:21.086Z,23.26
2023-06-18T20:00:22.927Z,23.13
2023-06-18T20:05:24.810Z,23.01
2023-06-18T20:10:26.457Z,22.78
2023-06-18T20:15:30.252Z,22.58
2023-06-18T20:20:31.708Z,22.38
2023-06-18T20:25:33.496Z,22.23
2023-06-18T20:30:35.160Z,22.09
2023-06-18T20:35:36.598Z,22.01
2023-06-18T20:40:38.465Z,21.99
2023-06-18T20:45:39.892Z,21.98
2023-06-18T20:50:41.400Z,21.94
2023-06-18T20:55:42.812Z,21.90
2023-06-18T21:00:44.219Z,21.86
2023-06-18T21:05:45.733Z,21.82
2023-06-18T21:10:47.159Z,21.78
2023-06-18T21:15:48.521Z,21.76
2023-06-18T21:20:49.890Z,21.74
2023-06-18T21:25:51.240Z,21.68
2023-06-18T21:30:52.934Z,21.66
2023-06-18T21:35:54.334Z,21.59
2023-06-18T21:40:55.705Z,21.49
2023-06-18T21:45:58.476Z,21.38
2023-06-18T21:51:01.912Z,21.29
2023-06-18T21:56:05.198Z,21.20
2023-06-18T22:01:06.575Z,21.11
2023-06-18T22:06:09.161Z,21.03
2023-06-18T22:11:10.504Z,20.92
2023-06-18T22:16:12.030Z,20.85
2023-06-18T22:21:15.587Z,20.77
2023-06-18T22:26:16.955Z,20.72
2023-06-18T22:31:18.323Z,20.65
2023-06-18T22:36:19.684Z,20.57
2023-06-18T22:41:21.487Z,20.49
2023-06-18T22:46:23.243Z,20.42
2023-06-18T22:51:24.756Z,20.38
2023-06-18T22:56:29.062Z,20.36
2023-06-18T23:01:30.528Z,20.33
2023-06-18T23:06:31.979Z,20.35
2023-06-18T23:11:33.358Z,20.33
2023-06-18T23:16:34.803Z,20.32
2023-06-18T23:21:46.881Z,20.32
2023-06-18T23:26:49.491Z,20.33
2023-06-18T23:31:53.549Z,20.32
2023-06-18T23:36:58.363Z,20.30
2023-06-18T23:41:59.755Z,20.27
2023-06-18T23:47:01.155Z,20.25
2023-06-18T23:52:02.657Z,20.22
2023-06-18T23:57:04.320Z,20.19
